sensor_id;sensor_type;location;lat;lon;timestamp;pressure;altitude;pressure_sealevel;temperature;humidity
64388;BME280;50709;52.648;4.764;2023-02-12T00:01:35;103901.47;;;10.59;70.09
64388;BME280;50709;52.648;4.764;2023-02-12T00:04:01;103910.22;;;10.60;69.92
64388;BME280;50709;52.648;4.764;2023-02-12T00:06:26;103891.38;;;10.49;69.84
64388;BME280;50709;52.648;4.764;2023-02-12T00:08:54;103907.56;;;10.42;69.95
64388;BME280;50709;52.648;4.764;2023-02-12T00:11:22;103913.97;;;10.32;70.15
64388;BME280;50709;52.648;4.764;2023-02-12T00:13:48;103911.69;;;10.22;70.23
64388;BME280;50709;52.648;4.764;2023-02-12T00:16:16;103877.34;;;10.14;70.75
64388;BME280;50709;52.648;4.764;2023-02-12T00:18:42;103919.03;;;10.46;70.78
64388;BME280;50709;52.648;4.764;2023-02-12T00:21:08;103918.72;;;10.56;70.77
64388;BME280;50709;52.648;4.764;2023-02-12T00:23:34;103912.59;;;10.39;70.05
64388;BME280;50709;52.648;4.764;2023-02-12T00:26:04;103908.28;;;10.39;69.53
64388;BME280;50709;52.648;4.764;2023-02-12T00:28:29;103915.28;;;10.40;70.05
64388;BME280;50709;52.648;4.764;2023-02-12T00:30:55;103903.88;;;10.22;70.17
64388;BME280;50709;52.648;4.764;2023-02-12T00:33:20;103924.78;;;10.38;70.74
64388;BME280;50709;52.648;4.764;2023-02-12T00:35:54;103915.59;;;10.30;70.62
64388;BME280;50709;52.648;4.764;2023-02-12T00:38:20;103913.75;;;10.11;69.85
64388;BME280;50709;52.648;4.764;2023-02-12T00:40:45;103914.41;;;10.07;70.75
64388;BME280;50709;52.648;4.764;2023-02-12T00:43:11;103907.75;;;9.97;70.56
64388;BME280;50709;52.648;4.764;2023-02-12T00:45:36;103899.84;;;9.96;70.62
64388;BME280;50709;52.648;4.764;2023-02-12T00:48:02;103896.50;;;10.15;71.16
64388;BME280;50709;52.648;4.764;2023-02-12T00:50:28;103914.41;;;10.07;70.75
64388;BME280;50709;52.648;4.764;2023-02-12T00:52:54;103894.63;;;9.96;70.50
64388;BME280;50709;52.648;4.764;2023-02-12T00:55:19;103900.34;;;10.05;70.63
64388;BME280;50709;52.648;4.764;2023-02-12T00:57:45;103874.31;;;9.90;70.53
64388;BME280;50709;52.648;4.764;2023-02-12T01:00:11;103889.41;;;10.12;70.18
64388;BME280;50709;52.648;4.764;2023-02-12T01:02:36;103881.91;;;10.18;69.79
64388;BME280;50709;52.648;4.764;2023-02-12T01:05:02;103897.25;;;10.29;70.03
64388;BME280;50709;52.648;4.764;2023-02-12T01:07:28;103879.94;;;10.14;69.55
64388;BME280;50709;52.648;4.764;2023-02-12T01:09:53;103885.91;;;10.12;70.36
64388;BME280;50709;52.648;4.764;2023-02-12T01:12:19;103894.31;;;10.06;70.38
64388;BME280;50709;52.648;4.764;2023-02-12T01:14:44;103890.47;;;9.99;70.32
64388;BME280;50709;52.648;4.764;2023-02-12T01:17:09;103898.88;;;9.93;70.34
64388;BME280;50709;52.648;4.764;2023-02-12T01:19:35;103871.19;;;9.64;70.44
64388;BME280;50709;52.648;4.764;2023-02-12T01:22:00;103890.53;;;9.68;70.21
64388;BME280;50709;52.648;4.764;2023-02-12T01:24:26;103894.03;;;9.85;70.81
64388;BME280;50709;52.648;4.764;2023-02-12T01:26:51;103911.69;;;10.05;71.00
64388;BME280;50709;52.648;4.764;2023-02-12T01:29:17;103901.88;;;10.01;70.53
64388;BME280;50709;52.648;4.764;2023-02-12T01:31:42;103903.75;;;10.04;69.80
64388;BME280;50709;52.648;4.764;2023-02-12T01:34:09;103900.34;;;10.05;70.01
64388;BME280;50709;52.648;4.764;2023-02-12T01:36:35;103906.22;;;9.84;69.48
64388;BME280;50709;52.648;4.764;2023-02-12T01:39:01;103863.59;;;9.69;69.78
64388;BME280;50709;52.648;4.764;2023-02-12T01:41:34;103897.66;;;10.03;70.28
64388;BME280;50709;52.648;4.764;2023-02-12T01:46:44;103905.34;;;10.00;70.20
64388;BME280;50709;52.648;4.764;2023-02-12T01:49:30;103892.16;;;9.82;69.95
64388;BME280;50709;52.648;4.764;2023-02-12T01:52:07;103892.50;;;9.72;69.68
64388;BME280;50709;52.648;4.764;2023-02-12T01:54:35;103903.19;;;9.76;70.19
64388;BME280;50709;52.648;4.764;2023-02-12T01:57:04;103909.63;;;9.83;70.28
64388;BME280;50709;52.648;4.764;2023-02-12T01:59:31;103900.84;;;9.81;70.05
64388;BME280;50709;52.648;4.764;2023-02-12T02:01:57;103893.81;;;9.80;70.15
64388;BME280;50709;52.648;4.764;2023-02-12T02:04:25;103870.06;;;9.75;69.73
64388;BME280;50709;52.648;4.764;2023-02-12T02:07:00;103900.50;;;10.08;69.66
64388;BME280;50709;52.648;4.764;2023-02-12T02:09:28;103895.84;;;9.69;69.41
64388;BME280;50709;52.648;4.764;2023-02-12T02:11:55;103902.16;;;9.58;69.87
64388;BME280;50709;52.648;4.764;2023-02-12T02:14:39;103898.19;;;9.33;70.43
64388;BME280;50709;52.648;4.764;2023-02-12T02:23:09;103888.91;;;9.70;70.24
64388;BME280;50709;52.648;4.764;2023-02-12T02:26:08;103896.41;;;9.80;70.72
64388;BME280;50709;52.648;4.764;2023-02-12T02:31:46;103892.63;;;9.58;69.65
64388;BME280;50709;52.648;4.764;2023-02-12T02:34:23;103896.44;;;9.49;70.11
64388;BME280;50709;52.648;4.764;2023-02-12T02:37:02;103890.97;;;9.44;70.02
64388;BME280;50709;52.648;4.764;2023-02-12T02:39:35;103883.13;;;9.44;70.21
64388;BME280;50709;52.648;4.764;2023-02-12T02:44:51;103866.28;;;9.22;70.16
64388;BME280;50709;52.648;4.764;2023-02-12T02:47:42;103898.28;;;9.35;70.12
64388;BME280;50709;52.648;4.764;2023-02-12T02:50:09;103900.16;;;9.37;70.73
64388;BME280;50709;52.648;4.764;2023-02-12T02:52:48;103902.41;;;9.31;70.92
64388;BME280;50709;52.648;4.764;2023-02-12T02:55:18;103887.59;;;9.30;70.81
64388;BME280;50709;52.648;4.764;2023-02-12T02:57:50;103882.47;;;9.32;70.93
64388;BME280;50709;52.648;4.764;2023-02-12T03:00:31;103884.22;;;9.48;70.49
64388;BME280;50709;52.648;4.764;2023-02-12T03:03:05;103888.97;;;9.23;70.73
64388;BME280;50709;52.648;4.764;2023-02-12T03:05:36;103881.78;;;9.19;70.63
64388;BME280;50709;52.648;4.764;2023-02-12T03:08:10;103882.13;;;9.11;70.82
64388;BME280;50709;52.648;4.764;2023-02-12T03:10:42;103872.25;;;9.05;70.23
64388;BME280;50709;52.648;4.764;2023-02-12T03:13:12;103879.19;;;9.04;71.19
64388;BME280;50709;52.648;4.764;2023-02-12T03:15:46;103881.06;;;8.92;71.28
64388;BME280;50709;52.648;4.764;2023-02-12T03:18:21;103880.81;;;9.02;71.16
64388;BME280;50709;52.648;4.764;2023-02-12T03:20:51;103874.91;;;9.21;70.57
64388;BME280;50709;52.648;4.764;2023-02-12T03:23:26;103887.06;;;9.21;70.67
64388;BME280;50709;52.648;4.764;2023-02-12T03:25:58;103900.66;;;9.15;70.79
64388;BME280;50709;52.648;4.764;2023-02-12T03:28:31;103890.75;;;9.24;70.80
64388;BME280;50709;52.648;4.764;2023-02-12T03:36:15;103875.53;;;9.32;70.18
64388;BME280;50709;52.648;4.764;2023-02-12T03:38:48;103883.81;;;9.56;70.11
64388;BME280;50709;52.648;4.764;2023-02-12T03:44:40;103886.00;;;9.49;70.75
64388;BME280;50709;52.648;4.764;2023-02-12T03:47:21;103869.50;;;9.33;70.60
64388;BME280;50709;52.648;4.764;2023-02-12T03:50:00;103879.69;;;9.29;70.54
64388;BME280;50709;52.648;4.764;2023-02-12T03:52:28;103880.66;;;9.31;70.96
64388;BME280;50709;52.648;4.764;2023-02-12T03:54:53;103881.38;;;9.28;71.00
64388;BME280;50709;52.648;4.764;2023-02-12T03:57:21;103880.66;;;9.31;71.61
64388;BME280;50709;52.648;4.764;2023-02-12T03:59:48;103888.22;;;9.57;70.90
64388;BME280;50709;52.648;4.764;2023-02-12T04:02:15;103879.81;;;9.63;71.18
64388;BME280;50709;52.648;4.764;2023-02-12T04:04:43;103890.22;;;9.78;70.51
64388;BME280;50709;52.648;4.764;2023-02-12T04:07:09;103896.41;;;9.64;70.44
64388;BME280;50709;52.648;4.764;2023-02-12T04:09:35;103891.81;;;9.59;70.84
64388;BME280;50709;52.648;4.764;2023-02-12T04:12:39;103893.22;;;9.53;70.55
64388;BME280;50709;52.648;4.764;2023-02-12T04:15:15;103903.66;;;9.53;70.84
64388;BME280;50709;52.648;4.764;2023-02-12T04:20:28;103900.88;;;9.66;71.08
64388;BME280;50709;52.648;4.764;2023-02-12T04:25:51;103891.41;;;9.52;71.16
64388;BME280;50709;52.648;4.764;2023-02-12T04:31:11;103923.16;;;9.76;71.16
64388;BME280;50709;52.648;4.764;2023-02-12T04:34:00;103903.53;;;9.83;70.39
64388;BME280;50709;52.648;4.764;2023-02-12T04:36:33;103913.06;;;9.99;70.54
64388;BME280;50709;52.648;4.764;2023-02-12T04:39:04;103917.25;;;9.95;70.24
64388;BME280;50709;52.648;4.764;2023-02-12T04:41:37;103916.88;;;9.72;71.04
64388;BME280;50709;52.648;4.764;2023-02-12T04:44:23;103925.06;;;9.79;71.01
64388;BME280;50709;52.648;4.764;2023-02-12T04:46:50;103883.91;;;9.58;71.01
64388;BME280;50709;52.648;4.764;2023-02-12T04:49:18;103928.63;;;9.81;71.26
64388;BME280;50709;52.648;4.764;2023-02-12T04:51:45;103892.69;;;9.43;71.96
64388;BME280;50709;52.648;4.764;2023-02-12T04:54:11;103931.47;;;9.69;72.09
64388;BME280;50709;52.648;4.764;2023-02-12T04:56:37;103926.19;;;9.84;71.54
64388;BME280;50709;52.648;4.764;2023-02-12T04:59:03;103919.34;;;9.86;71.40
64388;BME280;50709;52.648;4.764;2023-02-12T05:01:29;103925.97;;;9.96;71.26
64388;BME280;50709;52.648;4.764;2023-02-12T05:03:54;103930.44;;;9.98;70.97
64388;BME280;50709;52.648;4.764;2023-02-12T05:06:19;103922.69;;;9.83;71.69
64388;BME280;50709;52.648;4.764;2023-02-12T05:08:45;103927.91;;;9.83;71.87
64388;BME280;50709;52.648;4.764;2023-02-12T05:11:10;103923.09;;;9.74;72.08
64388;BME280;50709;52.648;4.764;2023-02-12T05:13:36;103935.09;;;9.87;72.01
64388;BME280;50709;52.648;4.764;2023-02-12T05:16:06;103934.28;;;10.05;72.16
64388;BME280;50709;52.648;4.764;2023-02-12T05:18:33;103923.91;;;9.90;71.63
64388;BME280;50709;52.648;4.764;2023-02-12T05:21:02;103894.19;;;9.71;71.48
64388;BME280;50709;52.648;4.764;2023-02-12T05:23:29;103921.16;;;9.87;71.67
64388;BME280;50709;52.648;4.764;2023-02-12T05:25:57;103921.31;;;9.90;71.77
64388;BME280;50709;52.648;4.764;2023-02-12T05:28:23;103929.06;;;9.88;72.18
64388;BME280;50709;52.648;4.764;2023-02-12T05:30:49;103924.91;;;9.92;71.80
64388;BME280;50709;52.648;4.764;2023-02-12T05:33:14;103931.34;;;9.99;71.50
64388;BME280;50709;52.648;4.764;2023-02-12T05:35:40;103929.94;;;10.05;71.69
64388;BME280;50709;52.648;4.764;2023-02-12T05:38:05;103930.06;;;10.07;71.67
64388;BME280;50709;52.648;4.764;2023-02-12T05:40:31;103933.78;;;10.12;71.67
64388;BME280;50709;52.648;4.764;2023-02-12T05:42:56;103924.72;;;10.05;71.47
64388;BME280;50709;52.648;4.764;2023-02-12T05:45:21;103926.81;;;10.11;71.58
64388;BME280;50709;52.648;4.764;2023-02-12T05:47:52;103915.59;;;9.97;71.53
64388;BME280;50709;52.648;4.764;2023-02-12T05:50:18;103910.78;;;9.88;72.37
64388;BME280;50709;52.648;4.764;2023-02-12T05:52:43;103931.38;;;10.15;72.06
64388;BME280;50709;52.648;4.764;2023-02-12T05:55:09;103928.97;;;10.20;71.74
64388;BME280;50709;52.648;4.764;2023-02-12T05:57:34;103914.69;;;10.13;71.38
64388;BME280;50709;52.648;4.764;2023-02-12T06:00:00;103919.63;;;10.23;71.42
64388;BME280;50709;52.648;4.764;2023-02-12T06:02:25;103928.03;;;10.18;71.21
64388;BME280;50709;52.648;4.764;2023-02-12T06:04:50;103930.53;;;10.16;71.62
64388;BME280;50709;52.648;4.764;2023-02-12T06:07:16;103935.03;;;10.19;71.50
64388;BME280;50709;52.648;4.764;2023-02-12T06:09:41;103930.44;;;10.15;71.86
64388;BME280;50709;52.648;4.764;2023-02-12T06:12:07;103932.41;;;10.19;71.57
64388;BME280;50709;52.648;4.764;2023-02-12T06:14:32;103928.66;;;10.30;71.37
64388;BME280;50709;52.648;4.764;2023-02-12T06:16:57;103922.97;;;10.37;71.06
64388;BME280;50709;52.648;4.764;2023-02-12T06:19:23;103925.88;;;10.10;71.36
64388;BME280;50709;52.648;4.764;2023-02-12T06:21:48;103931.28;;;10.14;71.77
64388;BME280;50709;52.648;4.764;2023-02-12T06:24:15;103933.13;;;10.00;72.62
64388;BME280;50709;52.648;4.764;2023-02-12T06:26:41;103892.66;;;9.91;72.50
64388;BME280;50709;52.648;4.764;2023-02-12T06:29:06;103939.44;;;10.03;72.59
64388;BME280;50709;52.648;4.764;2023-02-12T06:31:33;103893.81;;;9.97;71.76
64388;BME280;50709;52.648;4.764;2023-02-12T06:34:06;103939.13;;;10.47;71.34
64388;BME280;50709;52.648;4.764;2023-02-12T06:36:32;103944.34;;;10.47;70.92
64388;BME280;50709;52.648;4.764;2023-02-12T06:38:59;103931.44;;;10.50;71.02
64388;BME280;50709;52.648;4.764;2023-02-12T06:41:25;103943.06;;;10.38;71.26
64388;BME280;50709;52.648;4.764;2023-02-12T06:43:50;103939.84;;;10.27;72.26
64388;BME280;50709;52.648;4.764;2023-02-12T06:46:16;103943.38;;;10.44;71.68
64388;BME280;50709;52.648;4.764;2023-02-12T06:48:41;103932.75;;;10.41;71.10
64388;BME280;50709;52.648;4.764;2023-02-12T06:51:15;103904.75;;;10.22;71.65
64388;BME280;50709;52.648;4.764;2023-02-12T06:53:41;103944.16;;;10.27;72.06
64388;BME280;50709;52.648;4.764;2023-02-12T06:56:08;103945.22;;;10.31;72.47
64388;BME280;50709;52.648;4.764;2023-02-12T06:58:43;103939.78;;;10.42;71.74
64388;BME280;50709;52.648;4.764;2023-02-12T07:01:17;103904.84;;;10.07;71.26
64388;BME280;50709;52.648;4.764;2023-02-12T07:03:47;103944.72;;;10.21;71.49
64388;BME280;50709;52.648;4.764;2023-02-12T07:06:13;103942.19;;;10.23;71.48
64388;BME280;50709;52.648;4.764;2023-02-12T07:08:38;103952.25;;;10.32;72.18
64388;BME280;50709;52.648;4.764;2023-02-12T07:11:04;103944.78;;;10.38;71.69
64388;BME280;50709;52.648;4.764;2023-02-12T07:13:30;103932.09;;;10.29;71.70
64388;BME280;50709;52.648;4.764;2023-02-12T07:16:08;103957.28;;;10.43;72.20
64388;BME280;50709;52.648;4.764;2023-02-12T07:18:35;103952.84;;;10.42;71.91
64388;BME280;50709;52.648;4.764;2023-02-12T07:21:00;103951.13;;;10.43;71.03
64388;BME280;50709;52.648;4.764;2023-02-12T07:23:26;103958.09;;;10.42;71.50
64388;BME280;50709;52.648;4.764;2023-02-12T07:25:56;103950.97;;;10.23;71.65
64388;BME280;50709;52.648;4.764;2023-02-12T07:28:22;103958.06;;;10.26;71.51
64388;BME280;50709;52.648;4.764;2023-02-12T07:30:47;103950.88;;;10.22;71.24
64388;BME280;50709;52.648;4.764;2023-02-12T07:33:12;103959.28;;;10.33;72.06
64388;BME280;50709;52.648;4.764;2023-02-12T07:35:38;103966.72;;;10.25;71.82
64388;BME280;50709;52.648;4.764;2023-02-12T07:38:03;103983.78;;;10.51;71.55
64388;BME280;50709;52.648;4.764;2023-02-12T07:40:28;103969.50;;;10.44;71.28
64388;BME280;50709;52.648;4.764;2023-02-12T07:42:55;103980.53;;;10.39;70.97
64388;BME280;50709;52.648;4.764;2023-02-12T07:45:20;103976.88;;;10.35;71.42
64388;BME280;50709;52.648;4.764;2023-02-12T07:47:46;103987.72;;;10.43;71.70
64388;BME280;50709;52.648;4.764;2023-02-12T07:50:11;103976.72;;;10.17;72.00
64388;BME280;50709;52.648;4.764;2023-02-12T07:52:36;103979.22;;;10.47;71.58
64388;BME280;50709;52.648;4.764;2023-02-12T07:55:02;103980.13;;;10.64;71.32
64388;BME280;50709;52.648;4.764;2023-02-12T07:57:28;103986.22;;;10.65;71.10
64388;BME280;50709;52.648;4.764;2023-02-12T07:59:53;104000.28;;;10.67;71.33
64388;BME280;50709;52.648;4.764;2023-02-12T08:02:19;104000.22;;;10.65;71.32
64388;BME280;50709;52.648;4.764;2023-02-12T08:04:45;103999.28;;;10.65;71.17
64388;BME280;50709;52.648;4.764;2023-02-12T08:07:10;104007.50;;;10.54;71.05
64388;BME280;50709;52.648;4.764;2023-02-12T08:09:36;103996.78;;;10.66;70.96
64388;BME280;50709;52.648;4.764;2023-02-12T08:12:01;104004.72;;;10.68;71.12
64388;BME280;50709;52.648;4.764;2023-02-12T08:14:26;104010.66;;;10.82;70.91
64388;BME280;50709;52.648;4.764;2023-02-12T08:16:52;104004.97;;;10.90;70.54
64388;BME280;50709;52.648;4.764;2023-02-12T08:19:18;104019.19;;;10.96;70.72
64388;BME280;50709;52.648;4.764;2023-02-12T08:21:43;104014.69;;;10.93;71.11
64388;BME280;50709;52.648;4.764;2023-02-12T08:24:09;104019.00;;;10.74;70.66
64388;BME280;50709;52.648;4.764;2023-02-12T08:26:37;104022.16;;;10.85;71.41
64388;BME280;50709;52.648;4.764;2023-02-12T08:29:08;104022.72;;;10.80;71.18
64388;BME280;50709;52.648;4.764;2023-02-12T08:31:37;103983.16;;;10.55;71.25
64388;BME280;50709;52.648;4.764;2023-02-12T08:34:02;104010.56;;;10.80;70.68
64388;BME280;50709;52.648;4.764;2023-02-12T08:36:33;104024.44;;;10.96;70.45
64388;BME280;50709;52.648;4.764;2023-02-12T08:39:00;104017.75;;;10.84;70.82
64388;BME280;50709;52.648;4.764;2023-02-12T08:41:27;103994.56;;;10.74;70.49
64388;BME280;50709;52.648;4.764;2023-02-12T08:43:56;103995.38;;;10.73;70.58
64388;BME280;50709;52.648;4.764;2023-02-12T08:46:23;103985.19;;;10.61;70.67
64388;BME280;50709;52.648;4.764;2023-02-12T08:48:54;104035.88;;;10.98;71.33
64388;BME280;50709;52.648;4.764;2023-02-12T08:51:22;104039.72;;;11.04;69.99
64388;BME280;50709;52.648;4.764;2023-02-12T08:53:52;103968.41;;;10.74;69.41
64388;BME280;50709;52.648;4.764;2023-02-12T08:56:17;104041.47;;;11.22;69.98
64388;BME280;50709;52.648;4.764;2023-02-12T08:58:44;104016.72;;;11.15;69.84
64388;BME280;50709;52.648;4.764;2023-02-12T09:01:14;104038.84;;;11.22;69.65
64388;BME280;50709;52.648;4.764;2023-02-12T09:03:40;104037.78;;;11.18;69.91
64388;BME280;50709;52.648;4.764;2023-02-12T09:06:06;104040.31;;;11.17;69.71
64388;BME280;50709;52.648;4.764;2023-02-12T09:08:33;104045.72;;;11.20;70.26
64388;BME280;50709;52.648;4.764;2023-02-12T09:10:58;104042.88;;;11.15;70.60
64388;BME280;50709;52.648;4.764;2023-02-12T09:13:24;104029.19;;;11.21;70.35
64388;BME280;50709;52.648;4.764;2023-02-12T09:15:49;104033.97;;;11.30;70.18
64388;BME280;50709;52.648;4.764;2023-02-12T09:18:15;104028.00;;;11.32;69.79
64388;BME280;50709;52.648;4.764;2023-02-12T09:20:43;104004.22;;;11.09;69.26
64388;BME280;50709;52.648;4.764;2023-02-12T09:23:11;104042.09;;;11.34;69.48
64388;BME280;50709;52.648;4.764;2023-02-12T09:25:44;104039.41;;;11.33;69.29
64388;BME280;50709;52.648;4.764;2023-02-12T09:28:10;104036.84;;;11.34;69.16
64388;BME280;50709;52.648;4.764;2023-02-12T09:30:37;104040.53;;;11.38;69.01
64388;BME280;50709;52.648;4.764;2023-02-12T09:33:03;104034.38;;;11.37;69.36
64388;BME280;50709;52.648;4.764;2023-02-12T09:35:29;104044.41;;;11.46;68.38
64388;BME280;50709;52.648;4.764;2023-02-12T09:37:54;104037.16;;;11.40;68.26
64388;BME280;50709;52.648;4.764;2023-02-12T09:40:28;104050.31;;;11.60;68.01
64388;BME280;50709;52.648;4.764;2023-02-12T09:43:05;104055.69;;;11.63;68.18
64388;BME280;50709;52.648;4.764;2023-02-12T09:45:44;104052.50;;;11.69;68.11
64388;BME280;50709;52.648;4.764;2023-02-12T09:48:33;104035.81;;;11.85;67.11
64388;BME280;50709;52.648;4.764;2023-02-12T09:51:02;104038.88;;;12.12;66.07
64388;BME280;50709;52.648;4.764;2023-02-12T09:53:31;104039.00;;;12.53;65.31
64388;BME280;50709;52.648;4.764;2023-02-12T09:55:59;104016.22;;;12.52;64.37
64388;BME280;50709;52.648;4.764;2023-02-12T09:58:34;104030.97;;;12.69;64.06
64388;BME280;50709;52.648;4.764;2023-02-12T10:01:14;104031.22;;;12.95;62.88
64388;BME280;50709;52.648;4.764;2023-02-12T10:03:40;104045.16;;;13.13;62.84
64388;BME280;50709;52.648;4.764;2023-02-12T10:11:22;104050.03;;;13.68;60.51
64388;BME280;50709;52.648;4.764;2023-02-12T10:27:37;104032.78;;;14.44;58.10
64388;BME280;50709;52.648;4.764;2023-02-12T10:30:25;104048.88;;;15.26;56.19
64388;BME280;50709;52.648;4.764;2023-02-12T10:33:24;104034.94;;;15.03;56.62
64388;BME280;50709;52.648;4.764;2023-02-12T10:35:56;104046.03;;;15.45;56.34
64388;BME280;50709;52.648;4.764;2023-02-12T10:38:28;104030.44;;;15.53;55.14
64388;BME280;50709;52.648;4.764;2023-02-12T10:40:55;104022.13;;;15.68;55.04
64388;BME280;50709;52.648;4.764;2023-02-12T10:43:23;104034.31;;;16.21;53.73
64388;BME280;50709;52.648;4.764;2023-02-12T10:45:48;104029.03;;;16.21;53.56
64388;BME280;50709;52.648;4.764;2023-02-12T10:53:38;104037.50;;;16.09;53.42
64388;BME280;50709;52.648;4.764;2023-02-12T10:56:23;104034.81;;;16.68;52.57
64388;BME280;50709;52.648;4.764;2023-02-12T10:58:54;104040.47;;;17.51;49.81
64388;BME280;50709;52.648;4.764;2023-02-12T11:01:24;104030.88;;;17.19;51.24
64388;BME280;50709;52.648;4.764;2023-02-12T11:03:50;104027.56;;;16.93;50.75
64388;BME280;50709;52.648;4.764;2023-02-12T11:06:17;104035.50;;;16.62;52.32
64388;BME280;50709;52.648;4.764;2023-02-12T11:08:43;104002.34;;;16.40;52.68
64388;BME280;50709;52.648;4.764;2023-02-12T11:11:22;104027.41;;;16.55;53.11
64388;BME280;50709;52.648;4.764;2023-02-12T11:13:56;103985.78;;;16.44;51.98
64388;BME280;50709;52.648;4.764;2023-02-12T11:16:37;104020.19;;;17.49;50.93
64388;BME280;50709;52.648;4.764;2023-02-12T11:19:07;104006.59;;;18.12;48.32
64388;BME280;50709;52.648;4.764;2023-02-12T11:21:42;104018.94;;;18.10;48.05
64388;BME280;50709;52.648;4.764;2023-02-12T11:24:25;104016.44;;;17.40;49.60
64388;BME280;50709;52.648;4.764;2023-02-12T11:29:44;104014.91;;;17.51;49.08
64388;BME280;50709;52.648;4.764;2023-02-12T11:32:17;104018.19;;;17.06;49.43
64388;BME280;50709;52.648;4.764;2023-02-12T11:34:43;104008.38;;;17.00;50.10
64388;BME280;50709;52.648;4.764;2023-02-12T11:37:18;104007.91;;;17.17;49.62
64388;BME280;50709;52.648;4.764;2023-02-12T11:39:48;104009.09;;;17.28;49.67
64388;BME280;50709;52.648;4.764;2023-02-12T11:42:15;104011.50;;;17.55;50.33
64388;BME280;50709;52.648;4.764;2023-02-12T11:44:50;104003.31;;;18.22;49.04
64388;BME280;50709;52.648;4.764;2023-02-12T11:47:34;104002.13;;;18.08;47.50
64388;BME280;50709;52.648;4.764;2023-02-12T11:52:48;104006.59;;;17.72;49.82
64388;BME280;50709;52.648;4.764;2023-02-12T11:55:22;103975.41;;;17.19;50.20
64388;BME280;50709;52.648;4.764;2023-02-12T11:57:51;103990.25;;;16.80;48.56
64388;BME280;50709;52.648;4.764;2023-02-12T12:00:22;104002.25;;;16.69;50.23
64388;BME280;50709;52.648;4.764;2023-02-12T12:05:51;104005.75;;;16.36;50.75
64388;BME280;50709;52.648;4.764;2023-02-12T12:08:35;104012.56;;;16.60;51.71
64388;BME280;50709;52.648;4.764;2023-02-12T12:11:18;103983.81;;;16.07;51.66
64388;BME280;50709;52.648;4.764;2023-02-12T12:17:05;104009.50;;;16.14;51.39
64388;BME280;50709;52.648;4.764;2023-02-12T12:20:00;103972.72;;;15.59;52.66
64388;BME280;50709;52.648;4.764;2023-02-12T12:25:22;104003.50;;;15.89;52.89
64388;BME280;50709;52.648;4.764;2023-02-12T12:47:04;104003.78;;;14.41;54.14
64388;BME280;50709;52.648;4.764;2023-02-12T12:49:46;103960.75;;;14.15;55.32
64388;BME280;50709;52.648;4.764;2023-02-12T13:00:52;103986.06;;;14.12;56.34
64388;BME280;50709;52.648;4.764;2023-02-12T13:09:47;103985.34;;;14.17;55.48
64388;BME280;50709;52.648;4.764;2023-02-12T13:17:19;103951.63;;;14.05;55.13
64388;BME280;50709;52.648;4.764;2023-02-12T13:20:01;103970.22;;;13.87;54.54
64388;BME280;50709;52.648;4.764;2023-02-12T13:27:47;103954.56;;;13.90;55.07
64388;BME280;50709;52.648;4.764;2023-02-12T13:32:44;103956.09;;;14.07;55.69
64388;BME280;50709;52.648;4.764;2023-02-12T13:35:21;103953.16;;;13.75;56.18
64388;BME280;50709;52.648;4.764;2023-02-12T13:37:52;103943.22;;;13.91;56.98
64388;BME280;50709;52.648;4.764;2023-02-12T13:40:26;103945.38;;;13.78;55.65
64388;BME280;50709;52.648;4.764;2023-02-12T13:45:49;103950.50;;;13.98;57.70
64388;BME280;50709;52.648;4.764;2023-02-12T13:51:27;103941.22;;;13.84;55.66
64388;BME280;50709;52.648;4.764;2023-02-12T13:56:54;103946.31;;;14.03;57.68
64388;BME280;50709;52.648;4.764;2023-02-12T14:01:55;103938.34;;;13.77;56.16
64388;BME280;50709;52.648;4.764;2023-02-12T14:04:27;103933.75;;;13.72;55.04
64388;BME280;50709;52.648;4.764;2023-02-12T14:06:54;103939.16;;;13.76;55.58
64388;BME280;50709;52.648;4.764;2023-02-12T14:09:26;103931.00;;;13.69;55.22
64388;BME280;50709;52.648;4.764;2023-02-12T14:11:54;103914.28;;;13.67;55.20
64388;BME280;50709;52.648;4.764;2023-02-12T14:14:29;103924.84;;;13.68;56.14
64388;BME280;50709;52.648;4.764;2023-02-12T14:16:56;103933.44;;;13.64;54.79
64388;BME280;50709;52.648;4.764;2023-02-12T14:27:49;103924.56;;;13.60;56.30
64388;BME280;50709;52.648;4.764;2023-02-12T14:32:56;103929.94;;;13.63;57.13
64388;BME280;50709;52.648;4.764;2023-02-12T14:37:54;103942.59;;;13.51;55.87
64388;BME280;50709;52.648;4.764;2023-02-12T14:42:58;103928.09;;;13.61;56.39
64388;BME280;50709;52.648;4.764;2023-02-12T14:45:33;103922.94;;;13.64;56.86
64388;BME280;50709;52.648;4.764;2023-02-12T14:48:00;103909.28;;;13.29;54.76
64388;BME280;50709;52.648;4.764;2023-02-12T14:50:38;103931.78;;;13.43;55.35
64388;BME280;50709;52.648;4.764;2023-02-12T14:53:36;103907.53;;;13.51;56.60
64388;BME280;50709;52.648;4.764;2023-02-12T14:56:03;103916.06;;;13.24;56.24
64388;BME280;50709;52.648;4.764;2023-02-12T14:58:34;103920.44;;;13.44;57.43
64388;BME280;50709;52.648;4.764;2023-02-12T15:01:00;103925.38;;;13.37;56.14
64388;BME280;50709;52.648;4.764;2023-02-12T15:03:40;103902.91;;;13.43;58.25
64388;BME280;50709;52.648;4.764;2023-02-12T15:06:20;103914.28;;;13.44;57.11
64388;BME280;50709;52.648;4.764;2023-02-12T15:08:59;103916.28;;;13.28;55.86
64388;BME280;50709;52.648;4.764;2023-02-12T15:14:02;103913.72;;;13.51;56.93
64388;BME280;50709;52.648;4.764;2023-02-12T15:16:33;103907.91;;;13.37;55.34
64388;BME280;50709;52.648;4.764;2023-02-12T15:21:47;103899.72;;;13.99;54.60
64388;BME280;50709;52.648;4.764;2023-02-12T15:24:20;103906.44;;;14.39;54.78
64388;BME280;50709;52.648;4.764;2023-02-12T15:26:49;103895.13;;;14.42;53.89
64388;BME280;50709;52.648;4.764;2023-02-12T15:31:56;103905.72;;;14.69;52.01
64388;BME280;50709;52.648;4.764;2023-02-12T15:34:25;103899.88;;;15.04;52.64
64388;BME280;50709;52.648;4.764;2023-02-12T15:36:54;103842.41;;;14.90;53.27
64388;BME280;50709;52.648;4.764;2023-02-12T15:39:21;103901.59;;;15.30;52.80